Time;durP1;ratioP1;P1;durP2;ratioP2;P2;SDS_P1;SDS_P2;PMS_P1;PMS_P2;Temp;Humidity;BMP_temperature;BMP_pressure;BME280_temperature;BME280_humidity;BME280_pressure;Samples;Min_cycle;Max_cycle;Signal;HPM_P1;HPM_P2
2022/05/13 00:02:06;;;;;;;1.90;1.57;;;16.80;99.90;;;;;;5032485;28;20658;-82
2022/05/13 00:04:35;;;;;;;3.40;2.17;;;16.70;99.90;;;;;;5036721;28;20631;-82
2022/05/13 00:07:02;;;;;;;2.90;2.47;;;16.60;99.90;;;;;;5035326;28;20623;-82
2022/05/13 00:12:13;;;;;;;3.20;2.90;;;16.80;99.90;;;;;;5037387;28;20725;-83
2022/05/13 00:14:42;;;;;;;3.10;2.07;;;16.80;99.90;;;;;;5031553;28;20636;-82
2022/05/13 00:17:10;;;;;;;2.07;1.73;;;16.90;99.90;;;;;;5028157;28;20677;-81
2022/05/13 00:19:39;;;;;;;4.50;3.47;;;16.80;99.90;;;;;;5035505;28;21213;-82
2022/05/13 00:22:07;;;;;;;3.23;2.57;;;16.80;99.90;;;;;;5029451;28;20620;-82
2022/05/13 00:24:35;;;;;;;3.43;3.10;;;19.20;99.90;;;;;;5029171;28;20623;-82
2022/05/13 00:27:04;;;;;;;4.40;3.20;;;16.90;99.90;;;;;;5035496;28;21165;-82
2022/05/13 00:29:32;;;;;;;2.87;2.57;;;16.80;99.90;;;;;;5032436;28;20821;-82
2022/05/13 00:32:00;;;;;;;2.53;2.33;;;16.50;99.90;;;;;;5029593;28;20618;-83
2022/05/13 00:34:28;;;;;;;2.30;2.20;;;16.70;99.90;;;;;;5031977;28;20626;-83
2022/05/13 00:36:57;;;;;;;2.60;2.20;;;16.70;99.90;;;;;;5029399;28;22268;-83
2022/05/13 00:39:24;;;;;;;3.03;2.50;;;16.60;99.90;;;;;;5032282;28;20629;-82
2022/05/13 00:41:51;;;;;;;2.73;2.53;;;16.70;99.90;;;;;;5036733;28;20635;-83
2022/05/13 00:44:18;;;;;;;2.97;2.77;;;16.70;99.90;;;;;;5031903;28;20665;-85
2022/05/13 00:46:45;;;;;;;3.67;3.30;;;;;;;;;;5033556;28;20700;-82
2022/05/13 00:49:16;;;;;;;2.47;2.27;;;17.50;99.90;;;;;;5034442;28;20686;-82
2022/05/13 00:51:46;;;;;;;3.60;3.30;;;16.70;99.90;;;;;;5031277;28;20607;-82
2022/05/13 00:54:16;;;;;;;4.07;3.23;;;16.60;99.90;;;;;;5034593;28;20624;-83
2022/05/13 00:56:45;;;;;;;3.03;2.43;;;16.70;99.90;;;;;;5034226;28;20680;-82
2022/05/13 00:59:16;;;;;;;4.10;3.00;;;16.80;99.90;;;;;;5028968;28;20622;-82
2022/05/13 01:01:43;;;;;;;5.63;2.90;;;16.70;99.90;;;;;;5028472;28;21007;-82
2022/05/13 01:04:15;;;;;;;4.10;3.70;;;15.10;99.90;;;;;;5028392;28;21021;-82
2022/05/13 01:06:45;;;;;;;2.73;2.53;;;16.70;99.90;;;;;;5030574;28;20620;-82
2022/05/13 01:09:14;;;;;;;4.80;2.97;;;16.70;99.90;;;;;;5037294;28;20618;-81
2022/05/13 01:11:43;;;;;;;3.50;3.07;;;16.70;99.90;;;;;;5026688;28;20643;-83
2022/05/13 01:14:17;;;;;;;4.43;2.47;;;16.70;99.90;;;;;;5034071;28;20713;-83
2022/05/13 01:19:30;;;;;;;3.50;3.00;;;16.90;99.90;;;;;;5032514;28;20713;-83
2022/05/13 01:22:12;;;;;;;2.50;2.23;;;16.70;99.90;;;;;;5028895;28;20627;-82
2022/05/13 01:24:41;;;;;;;3.13;2.47;;;16.60;99.90;;;;;;5032046;28;20709;-82
2022/05/13 01:27:08;;;;;;;3.17;2.87;;;16.60;99.90;;;;;;5026698;28;20641;-82
2022/05/13 01:29:36;;;;;;;3.83;3.43;;;16.60;99.90;;;;;;5032301;28;20674;-83
2022/05/13 01:32:03;;;;;;;4.03;2.67;;;16.80;99.90;;;;;;5031821;28;20630;-84
2022/05/13 01:34:31;;;;;;;3.90;2.90;;;16.50;99.90;;;;;;5035664;28;20741;-82
2022/05/13 01:37:00;;;;;;;5.23;2.50;;;16.60;99.90;;;;;;5031191;28;20630;-82
2022/05/13 01:39:27;;;;;;;2.87;2.67;;;16.80;99.90;;;;;;5036805;28;20614;-82
2022/05/13 01:41:54;;;;;;;5.93;3.37;;;16.30;99.90;;;;;;5031255;28;20693;-82
2022/05/13 01:44:21;;;;;;;2.47;2.27;;;16.60;99.90;;;;;;5031413;28;21186;-82
2022/05/13 01:46:48;;;;;;;3.00;2.70;;;16.60;99.90;;;;;;5030314;28;20618;-83
2022/05/13 01:49:15;;;;;;;3.10;2.80;;;16.50;99.90;;;;;;5034239;28;20654;-84
2022/05/13 01:51:42;;;;;;;3.50;3.20;;;16.40;99.90;;;;;;5033679;28;20681;-83
2022/05/13 01:54:10;;;;;;;6.03;3.00;;;16.40;99.90;;;;;;5036013;28;20615;-84
2022/05/13 01:56:37;;;;;;;9.20;3.90;;;16.30;99.90;;;;;;5030107;28;20629;-83
2022/05/13 01:59:04;;;;;;;3.33;2.43;;;16.50;99.90;;;;;;5032849;28;20600;-83
2022/05/13 02:01:31;;;;;;;3.93;3.17;;;16.20;99.90;;;;;;5030025;28;20705;-83
2022/05/13 02:03:58;;;;;;;3.30;2.60;;;16.20;99.90;;;;;;5036826;28;20628;-84
2022/05/13 02:06:27;;;;;;;4.43;3.60;;;16.10;99.90;;;;;;5030292;28;21284;-84
2022/05/13 02:08:56;;;;;;;3.37;2.70;;;16.20;99.90;;;;;;5033532;28;20618;-84
2022/05/13 02:11:26;;;;;;;3.63;3.33;;;16.30;99.90;;;;;;5033616;28;20801;-85
2022/05/13 02:13:54;;;;;;;3.60;3.00;;;16.30;99.90;;;;;;5031355;28;20645;-84
2022/05/13 02:16:21;;;;;;;4.13;3.80;;;16.40;99.90;;;;;;5026382;28;21259;-83
2022/05/13 02:18:49;;;;;;;2.97;2.63;;;16.20;99.90;;;;;;5033691;28;21023;-84
2022/05/13 02:21:16;;;;;;;3.37;3.07;;;16.40;99.90;;;;;;5027029;28;20712;-84
2022/05/13 02:23:43;;;;;;;3.80;3.50;;;16.10;99.90;;;;;;5029403;28;20845;-84
2022/05/13 02:26:12;;;;;;;3.20;2.90;;;16.30;99.90;;;;;;5024397;28;21181;-85
2022/05/13 02:28:41;;;;;;;4.53;4.03;;;16.40;99.90;;;;;;5034129;28;20661;-84
2022/05/13 02:31:09;;;;;;;3.20;2.90;;;16.10;99.90;;;;;;5032356;28;20748;-85
2022/05/13 02:33:37;;;;;;;2.10;1.87;;;15.90;99.90;;;;;;5032346;28;20627;-85
2022/05/13 02:36:05;;;;;;;2.83;2.60;;;15.90;99.90;;;;;;5035607;28;21162;-86
2022/05/13 02:38:32;;;;;;;2.40;2.17;;;15.80;99.90;;;;;;5036586;28;20684;-85
2022/05/13 02:41:15;;;;;;;2.93;2.70;;;15.80;99.90;;;;;;5034861;28;20626;-85
2022/05/13 02:43:46;;;;;;;3.83;3.43;;;15.80;99.90;;;;;;5031852;28;20623;-85
2022/05/13 02:46:14;;;;;;;2.80;2.43;;;15.90;99.90;;;;;;5030145;28;20650;-85
2022/05/13 02:48:41;;;;;;;2.87;2.53;;;15.50;99.90;;;;;;5034783;28;20619;-85
2022/05/13 02:51:08;;;;;;;1.73;1.63;;;15.70;99.90;;;;;;5029935;28;20651;-84
2022/05/13 02:53:35;;;;;;;4.50;2.67;;;15.70;99.90;;;;;;5031652;28;21096;-83
2022/05/13 02:56:02;;;;;;;2.80;2.60;;;17.40;99.90;;;;;;5035719;28;20725;-84
2022/05/13 02:58:31;;;;;;;2.60;2.17;;;;;;;;;;5034633;28;20637;-85
2022/05/13 03:01:00;;;;;;;2.93;2.40;;;15.70;99.90;;;;;;5029161;28;20622;-85
2022/05/13 03:03:32;;;;;;;4.53;3.43;;;15.80;99.90;;;;;;5035818;28;21257;-84
2022/05/13 03:05:59;;;;;;;5.07;2.77;;;;;;;;;;5033022;28;20626;-85
2022/05/13 03:08:26;;;;;;;2.80;2.43;;;15.70;99.90;;;;;;5033397;28;20621;-85
2022/05/13 03:10:54;;;;;;;3.33;2.20;;;;;;;;;;5034699;28;20673;-85
2022/05/13 03:13:21;;;;;;;1.70;1.60;;;15.90;99.90;;;;;;5035355;28;20623;-85
2022/05/13 03:15:49;;;;;;;2.77;2.10;;;15.80;99.90;;;;;;5036271;28;20646;-85
2022/05/13 03:18:17;;;;;;;2.60;1.97;;;15.60;99.90;;;;;;5031316;28;21317;-84
2022/05/13 03:20:44;;;;;;;2.40;2.23;;;;;;;;;;5029865;28;20708;-85
2022/05/13 03:23:11;;;;;;;3.97;2.57;;;15.70;99.90;;;;;;5041893;28;20750;-85
2022/05/13 03:25:38;;;;;;;2.87;2.67;;;15.80;99.90;;;;;;5031773;28;21205;-84
2022/05/13 03:28:06;;;;;;;2.07;1.60;;;15.60;99.90;;;;;;5027967;28;20627;-84
2022/05/13 03:30:32;;;;;;;3.43;2.60;;;15.60;99.90;;;;;;5031563;28;21078;-85
2022/05/13 03:32:59;;;;;;;2.23;2.07;;;15.70;99.90;;;;;;5031345;28;21029;-85
2022/05/13 03:35:28;;;;;;;5.70;3.40;;;15.80;99.90;;;;;;5029491;28;20750;-85
2022/05/13 03:37:55;;;;;;;3.57;2.47;;;15.60;99.90;;;;;;5028079;28;20619;-85
2022/05/13 03:40:22;;;;;;;2.50;2.30;;;15.60;99.90;;;;;;5033565;28;20680;-85
2022/05/13 03:42:49;;;;;;;4.00;3.70;;;15.70;99.90;;;;;;5036359;28;20623;-85
2022/05/13 03:45:17;;;;;;;2.50;2.30;;;15.60;99.90;;;;;;5029738;28;20619;-85
2022/05/13 03:47:45;;;;;;;2.20;1.93;;;15.60;99.90;;;;;;5035331;28;20648;-84
2022/05/13 03:50:13;;;;;;;2.60;2.40;;;15.50;99.90;;;;;;5033347;28;20660;-85
2022/05/13 03:52:42;;;;;;;2.93;2.57;;;15.40;99.90;;;;;;5035476;28;20688;-85
2022/05/13 03:55:10;;;;;;;3.13;2.50;;;15.50;99.90;;;;;;5034638;28;20618;-85
2022/05/13 03:57:36;;;;;;;2.63;1.93;;;15.60;99.90;;;;;;5039083;28;20625;-85
2022/05/13 04:00:05;;;;;;;2.47;2.00;;;15.70;99.90;;;;;;5038034;28;20722;-84
2022/05/13 04:02:32;;;;;;;3.57;2.27;;;15.50;99.90;;;;;;5032801;28;20643;-84
2022/05/13 04:10:29;;;;;;;3.00;1.90;;;15.40;99.90;;;;;;5035022;28;20666;-85
2022/05/13 04:18:25;;;;;;;3.00;2.63;;;15.70;99.90;;;;;;5030027;28;20974;-85
2022/05/13 04:20:52;;;;;;;3.33;3.03;;;15.50;99.90;;;;;;5030250;28;21189;-85
2022/05/13 04:23:20;;;;;;;3.90;3.20;;;15.60;99.90;;;;;;5035446;28;21236;-85
2022/05/13 04:25:48;;;;;;;2.50;2.30;;;15.50;99.90;;;;;;5030967;28;21033;-85
2022/05/13 04:28:15;;;;;;;2.83;2.10;;;15.70;99.90;;;;;;5036161;28;21036;-85
2022/05/13 04:30:42;;;;;;;5.17;2.63;;;15.70;99.90;;;;;;5031498;28;20717;-85
2022/05/13 04:33:12;;;;;;;3.73;3.10;;;15.80;99.90;;;;;;5033111;28;20714;-86
2022/05/13 04:35:39;;;;;;;3.00;2.70;;;15.90;99.90;;;;;;5033685;28;20708;-85
2022/05/13 04:38:06;;;;;;;5.43;3.23;;;16.10;99.90;;;;;;5029632;28;21753;-86
2022/05/13 04:40:34;;;;;;;2.97;2.70;;;15.40;99.90;;;;;;5034874;28;20619;-85
2022/05/13 04:43:00;;;;;;;4.20;2.83;;;15.70;99.90;;;;;;5032725;28;21058;-85
2022/05/13 04:45:29;;;;;;;3.10;2.50;;;15.70;99.90;;;;;;5034682;28;20725;-85
2022/05/13 04:48:18;;;;;;;2.53;2.20;;;15.70;99.90;;;;;;5027783;28;20685;-84
2022/05/13 04:50:50;;;;;;;6.20;3.73;;;15.60;99.90;;;;;;5027261;28;20678;-85
2022/05/13 04:53:20;;;;;;;2.73;2.53;;;15.90;99.90;;;;;;5029526;28;20631;-85
2022/05/13 04:55:48;;;;;;;3.83;2.80;;;15.40;99.90;;;;;;5035248;28;20615;-85
2022/05/13 04:58:16;;;;;;;2.67;2.47;;;15.80;99.90;;;;;;5027345;28;20655;-85
2022/05/13 05:00:43;;;;;;;3.80;2.83;;;15.80;99.90;;;;;;5027224;28;21304;-84
2022/05/13 05:03:11;;;;;;;1.83;1.73;;;15.80;99.90;;;;;;5036298;28;20624;-85
2022/05/13 05:05:38;;;;;;;3.70;2.17;;;15.90;99.90;;;;;;5029851;28;20692;-85
2022/05/13 05:08:05;;;;;;;2.60;2.40;;;15.60;99.90;;;;;;5035554;28;21193;-85
2022/05/13 05:10:32;;;;;;;2.27;2.00;;;15.80;99.90;;;;;;5034133;28;21603;-85
2022/05/13 05:13:01;;;;;;;3.63;3.00;;;15.70;99.90;;;;;;5035100;28;20618;-85
2022/05/13 05:15:28;;;;;;;2.60;2.40;;;15.50;99.90;;;;;;5026640;28;20632;-85
2022/05/13 05:17:55;;;;;;;3.53;2.20;;;15.60;99.90;;;;;;5027341;28;20727;-85
2022/05/13 05:20:23;;;;;;;2.67;2.47;;;15.70;99.90;;;;;;5032428;28;20762;-85
2022/05/13 05:22:50;;;;;;;2.23;2.10;;;15.70;99.90;;;;;;5033432;28;21183;-86
2022/05/13 05:25:19;;;;;;;3.53;3.23;;;15.60;99.90;;;;;;5028537;28;20663;-85
2022/05/13 05:27:46;;;;;;;1.87;1.77;;;15.70;99.90;;;;;;5027112;28;20627;-85
2022/05/13 05:30:16;;;;;;;4.53;2.60;;;15.70;99.90;;;;;;5032485;28;20703;-85
2022/05/13 05:32:43;;;;;;;1.93;1.73;;;15.60;99.90;;;;;;5032873;28;21280;-85
2022/05/13 05:35:13;;;;;;;2.50;2.30;;;15.70;99.90;;;;;;5029482;28;20643;-84
2022/05/13 05:37:40;;;;;;;3.17;2.43;;;15.70;99.90;;;;;;5031769;28;20608;-85
2022/05/13 05:40:10;;;;;;;3.43;2.50;;;15.40;99.90;;;;;;5032546;28;21273;-84
2022/05/13 05:42:38;;;;;;;4.20;2.90;;;15.80;99.90;;;;;;5030872;28;20714;-85
2022/05/13 05:45:07;;;;;;;2.90;2.60;;;15.60;99.90;;;;;;5030107;28;20705;-85
2022/05/13 05:47:35;;;;;;;3.07;2.77;;;15.90;99.90;;;;;;5031067;28;20735;-85
2022/05/13 05:50:03;;;;;;;2.83;2.43;;;16.00;99.90;;;;;;5026900;28;20680;-85
2022/05/13 05:52:30;;;;;;;2.33;1.90;;;16.00;99.90;;;;;;5034432;28;21310;-84
2022/05/13 05:57:42;;;;;;;3.33;2.47;;;16.00;99.90;;;;;;5027571;28;21185;-86
2022/05/13 06:00:10;;;;;;;2.33;1.83;;;15.80;99.90;;;;;;5032369;28;21040;-86
2022/05/13 06:02:38;;;;;;;2.97;2.30;;;15.80;99.90;;;;;;5031354;28;20619;-85
2022/05/13 06:05:06;;;;;;;3.77;2.50;;;15.70;99.90;;;;;;5027795;28;21210;-86
2022/05/13 06:07:33;;;;;;;3.50;3.20;;;16.10;99.90;;;;;;5025774;28;20622;-86
2022/05/13 06:10:00;;;;;;;1.90;1.77;;;16.00;99.90;;;;;;5031181;28;20733;-85
2022/05/13 06:12:26;;;;;;;1.93;1.80;;;15.80;99.90;;;;;;5036954;28;21154;-85
2022/05/13 06:14:53;;;;;;;1.77;1.67;;;15.80;99.90;;;;;;5026882;28;20731;-86
2022/05/13 06:17:20;;;;;;;2.10;1.73;;;15.50;99.90;;;;;;5031501;28;20620;-85
2022/05/13 06:19:49;;;;;;;2.43;2.20;;;15.70;99.90;;;;;;5033177;28;20658;-85
2022/05/13 06:22:16;;;;;;;2.10;1.87;;;15.90;99.90;;;;;;5036905;28;21240;-85
2022/05/13 06:24:43;;;;;;;2.10;1.70;;;15.60;99.90;;;;;;5034818;28;20622;-85
2022/05/13 06:27:10;;;;;;;1.73;1.63;;;15.90;99.90;;;;;;5036084;28;20618;-86
2022/05/13 06:29:37;;;;;;;3.60;1.83;;;15.70;99.90;;;;;;5035373;28;20634;-85
2022/05/13 06:32:04;;;;;;;1.97;1.70;;;15.80;99.90;;;;;;5033830;28;20731;-85
2022/05/13 06:34:32;;;;;;;2.30;1.80;;;16.10;99.90;;;;;;5028981;28;20658;-87
2022/05/13 06:37:00;;;;;;;2.77;2.47;;;15.90;99.90;;;;;;5030114;28;20626;-85
2022/05/13 06:39:27;;;;;;;2.30;2.10;;;16.00;99.90;;;;;;5033681;28;20631;-86
2022/05/13 06:41:54;;;;;;;2.67;2.23;;;16.00;99.90;;;;;;5036271;28;20666;-86
2022/05/13 06:44:21;;;;;;;2.27;1.87;;;16.00;99.90;;;;;;5034868;28;20735;-85
2022/05/13 06:46:48;;;;;;;1.83;1.53;;;15.90;99.90;;;;;;5028749;28;21176;-85
2022/05/13 06:49:15;;;;;;;1.63;1.47;;;16.10;99.90;;;;;;5031416;28;20685;-85
2022/05/13 06:51:42;;;;;;;2.00;1.80;;;15.80;99.90;;;;;;5035430;28;21217;-86
2022/05/13 06:54:12;;;;;;;2.17;2.00;;;15.90;99.90;;;;;;5040275;28;20639;-85
2022/05/13 06:56:41;;;;;;;2.07;1.97;;;16.10;99.90;;;;;;5037928;28;20725;-85
2022/05/13 06:59:09;;;;;;;1.83;1.47;;;16.10;99.90;;;;;;5031704;28;20617;-86
2022/05/13 07:01:36;;;;;;;2.10;1.20;;;16.10;99.90;;;;;;5029401;28;20619;-84
2022/05/13 07:04:04;;;;;;;5.30;2.40;;;16.10;99.90;;;;;;5032554;28;21192;-86
2022/05/13 07:06:31;;;;;;;1.70;1.60;;;16.20;99.90;;;;;;5029307;28;21014;-86
2022/05/13 07:08:58;;;;;;;2.40;1.50;;;16.10;99.90;;;;;;5037996;28;20615;-87
2022/05/13 07:11:27;;;;;;;2.33;1.43;;;15.90;99.90;;;;;;5036730;28;20664;-85
2022/05/13 07:13:54;;;;;;;2.00;1.80;;;15.90;99.90;;;;;;5039053;28;20962;-85
2022/05/13 07:16:21;;;;;;;1.60;1.40;;;15.80;99.90;;;;;;5035386;28;20677;-85
2022/05/13 07:18:47;;;;;;;1.47;1.37;;;15.80;99.90;;;;;;5030252;28;20651;-84
2022/05/13 07:21:15;;;;;;;2.00;1.57;;;15.90;99.90;;;;;;5029115;28;20627;-85
2022/05/13 07:23:42;;;;;;;1.87;1.77;;;15.80;99.90;;;;;;5035074;28;21014;-85
2022/05/13 07:26:09;;;;;;;1.67;1.57;;;15.80;99.90;;;;;;5031738;28;21025;-85
2022/05/13 07:28:39;;;;;;;1.80;1.70;;;15.70;99.90;;;;;;5030423;28;20616;-85
2022/05/13 07:31:07;;;;;;;1.70;1.60;;;15.90;99.90;;;;;;5026655;28;20619;-85
2022/05/13 07:33:34;;;;;;;1.60;1.30;;;15.70;99.90;;;;;;5035943;28;20765;-86
2022/05/13 07:36:01;;;;;;;2.03;1.73;;;15.80;99.90;;;;;;5034725;28;20640;-85
2022/05/13 07:38:30;;;;;;;2.17;1.33;;;16.10;99.90;;;;;;5032936;28;20680;-85
2022/05/13 07:43:43;;;;;;;2.10;1.77;;;15.90;99.90;;;;;;5035103;28;20984;-85
2022/05/13 07:46:11;;;;;;;2.07;1.87;;;16.00;99.90;;;;;;5029161;28;20689;-85
2022/05/13 07:48:40;;;;;;;1.57;1.30;;;16.00;99.90;;;;;;5030468;28;20666;-85
2022/05/13 07:51:07;;;;;;;1.70;1.60;;;16.10;99.90;;;;;;5032134;28;20619;-85
2022/05/13 07:53:34;;;;;;;3.33;2.17;;;15.90;99.90;;;;;;5033731;28;20730;-85
2022/05/13 07:56:01;;;;;;;2.10;1.83;;;16.00;99.90;;;;;;5028197;28;20729;-85
2022/05/13 07:58:28;;;;;;;3.23;1.60;;;16.00;99.90;;;;;;5032086;28;20630;-87
2022/05/13 08:00:58;;;;;;;1.47;1.37;;;16.00;99.90;;;;;;5033978;28;21018;-85
2022/05/13 08:03:27;;;;;;;1.80;1.27;;;16.10;99.90;;;;;;5037670;28;21000;-85
2022/05/13 08:05:57;;;;;;;3.10;1.90;;;16.00;99.90;;;;;;5034590;28;20623;-85
2022/05/13 08:08:27;;;;;;;2.17;1.97;;;16.00;99.90;;;;;;5036988;28;20634;-85
2022/05/13 08:10:57;;;;;;;1.53;1.43;;;16.40;99.90;;;;;;5032071;28;20631;-84
2022/05/13 08:13:25;;;;;;;2.50;2.00;;;16.20;99.90;;;;;;5034561;28;20658;-85
2022/05/13 08:15:52;;;;;;;1.53;1.43;;;16.70;99.90;;;;;;5030713;28;21275;-85
2022/05/13 08:18:23;;;;;;;3.67;2.30;;;16.50;99.90;;;;;;5036629;28;20721;-84
2022/05/13 08:20:50;;;;;;;2.60;1.50;;;16.30;99.90;;;;;;5035453;28;20661;-85
2022/05/13 08:23:18;;;;;;;1.40;1.30;;;16.30;99.90;;;;;;5035659;28;20634;-84
2022/05/13 08:25:45;;;;;;;1.70;1.60;;;16.50;99.90;;;;;;5030241;28;20633;-85
2022/05/13 08:28:13;;;;;;;1.10;1.10;;;16.50;99.90;;;;;;5029258;28;20634;-84
2022/05/13 08:30:42;;;;;;;1.40;1.30;;;16.50;99.90;;;;;;5032796;28;20665;-84
2022/05/13 08:33:09;;;;;;;1.30;1.20;;;16.60;99.90;;;;;;5036321;28;20662;-84
2022/05/13 08:35:40;;;;;;;0.97;0.97;;;16.40;99.90;;;;;;5037539;28;20646;-84
2022/05/13 08:38:07;;;;;;;3.93;1.73;;;16.50;99.90;;;;;;5029147;28;20653;-85
2022/05/13 08:40:56;;;;;;;2.20;1.70;;;16.60;99.90;;;;;;5031700;28;20704;-83
2022/05/13 08:43:27;;;;;;;2.07;1.73;;;16.80;99.90;;;;;;5033883;28;20663;-85
2022/05/13 08:45:56;;;;;;;3.03;1.40;;;16.70;99.90;;;;;;5033341;28;20702;-85
2022/05/13 08:48:31;;;;;;;1.83;1.73;;;16.80;99.90;;;;;;5030412;28;20632;-84
2022/05/13 08:51:11;;;;;;;3.43;2.07;;;16.90;99.90;;;;;;5030660;28;20631;-84
2022/05/13 08:53:43;;;;;;;2.50;1.67;;;16.90;99.90;;;;;;5036307;28;20757;-85
2022/05/13 08:56:12;;;;;;;1.73;1.43;;;16.90;99.90;;;;;;5028995;28;20615;-85
2022/05/13 08:58:43;;;;;;;2.90;2.00;;;16.70;99.90;;;;;;5033805;28;20635;-85
2022/05/13 09:01:15;;;;;;;7.33;1.67;;;16.80;99.90;;;;;;5031513;28;20623;-84
2022/05/13 09:03:47;;;;;;;3.23;1.20;;;16.80;99.90;;;;;;5027156;28;20634;-85
2022/05/13 09:06:21;;;;;;;1.30;1.20;;;16.90;99.90;;;;;;5026913;28;20655;-84
2022/05/13 09:08:48;;;;;;;1.77;1.67;;;16.90;99.90;;;;;;5033260;28;20638;-84
2022/05/13 09:11:21;;;;;;;1.57;1.47;;;17.10;99.90;;;;;;5029368;28;20726;-83
2022/05/13 09:14:08;;;;;;;1.20;1.10;;;17.20;99.90;;;;;;5033330;28;20693;-84
2022/05/13 09:16:50;;;;;;;1.03;1.00;;;17.30;99.90;;;;;;5028151;28;20651;-85
2022/05/13 09:19:34;;;;;;;1.30;1.20;;;17.60;99.90;;;;;;5030889;28;20654;-84
2022/05/13 09:22:03;;;;;;;1.03;1.00;;;17.60;98.40;;;;;;5032940;28;20649;-84
2022/05/13 09:24:30;;;;;;;1.80;1.70;;;17.70;99.00;;;;;;5034892;28;20620;-85
2022/05/13 09:26:57;;;;;;;1.57;1.37;;;17.90;98.80;;;;;;5027253;28;20612;-84
2022/05/13 09:29:24;;;;;;;1.50;1.10;;;17.90;99.00;;;;;;5028144;28;20658;-83
2022/05/13 09:32:04;;;;;;;2.87;1.47;;;17.70;97.30;;;;;;5027605;28;20639;-84
2022/05/13 09:34:39;;;;;;;1.03;0.80;;;17.60;97.80;;;;;;5028766;28;20623;-85
2022/05/13 09:37:11;;;;;;;0.73;0.73;;;17.10;98.80;;;;;;5029632;28;20657;-85
2022/05/13 09:39:40;;;;;;;2.00;1.60;;;17.30;98.20;;;;;;5028190;28;21535;-85
2022/05/13 09:42:22;;;;;;;2.10;1.23;;;17.30;98.90;;;;;;5029520;28;20646;-85
2022/05/13 09:44:51;;;;;;;1.00;0.90;;;17.20;98.40;;;;;;5029269;28;20721;-85
2022/05/13 09:47:27;;;;;;;1.73;1.30;;;17.20;97.60;;;;;;5032365;28;21247;-84
2022/05/13 09:49:54;;;;;;;1.43;1.17;;;17.10;99.60;;;;;;5025789;28;20669;-84
2022/05/13 09:52:29;;;;;;;1.37;1.27;;;17.30;99.60;;;;;;5029753;28;20663;-85
2022/05/13 09:55:04;;;;;;;1.50;1.40;;;17.30;98.70;;;;;;5029390;28;20689;-84
2022/05/13 09:57:32;;;;;;;1.73;1.17;;;17.30;97.40;;;;;;5035130;28;20637;-84
2022/05/13 10:00:04;;;;;;;1.33;1.23;;;17.20;99.70;;;;;;5036349;28;20658;-84
2022/05/13 10:02:34;;;;;;;1.07;1.07;;;17.20;98.70;;;;;;5033654;28;20773;-84
2022/05/13 10:05:14;;;;;;;1.97;0.90;;;17.20;98.80;;;;;;5032733;28;20963;-85
2022/05/13 10:07:55;;;;;;;1.17;1.07;;;17.20;99.50;;;;;;5035841;28;20619;-85
2022/05/13 10:15:59;;;;;;;1.07;1.03;;;17.00;96.40;;;;;;5046152;28;21031;-85
2022/05/13 10:18:30;;;;;;;2.50;1.37;;;17.00;97.50;;;;;;5032919;28;20627;-85
2022/05/13 10:21:02;;;;;;;0.70;0.70;;;17.00;97.10;;;;;;5039568;28;20616;-85
2022/05/13 10:23:36;;;;;;;2.20;1.37;;;16.90;97.10;;;;;;5031882;28;20623;-85
2022/05/13 10:26:07;;;;;;;0.83;0.83;;;17.10;97.30;;;;;;5038405;28;20649;-85
2022/05/13 10:28:38;;;;;;;1.20;1.10;;;17.30;96.60;;;;;;5044968;28;20726;-85
2022/05/13 10:31:10;;;;;;;1.80;0.83;;;17.60;97.30;;;;;;5040047;28;20985;-85
2022/05/13 10:33:42;;;;;;;0.90;0.83;;;17.90;96.20;;;;;;5033316;28;21004;-85
2022/05/13 10:36:13;;;;;;;2.10;0.93;;;17.90;95.40;;;;;;5049606;28;21184;-84
2022/05/13 10:38:47;;;;;;;1.10;0.97;;;17.90;94.90;;;;;;5043520;28;20633;-85
2022/05/13 10:41:29;;;;;;;1.23;1.10;;;17.90;94.00;;;;;;5031071;28;20662;-86
2022/05/13 10:44:00;;;;;;;1.30;1.03;;;18.20;97.10;;;;;;5031488;28;20635;-84
2022/05/13 10:46:35;;;;;;;6.23;1.53;;;18.20;94.40;;;;;;5030760;28;20658;-85
2022/05/13 10:49:02;;;;;;;0.80;0.77;;;18.10;94.20;;;;;;5039285;28;20657;-84
2022/05/13 10:51:35;;;;;;;1.70;1.20;;;18.00;94.20;;;;;;5035867;28;20972;-84
2022/05/13 10:54:25;;;;;;;1.43;1.20;;;18.00;94.30;;;;;;5031186;28;20667;-85
2022/05/13 10:56:59;;;;;;;4.10;1.93;;;18.00;94.50;;;;;;5024679;28;20737;-85
2022/05/13 10:59:54;;;;;;;0.90;0.80;;;17.80;94.80;;;;;;5035680;28;20623;-85
2022/05/13 11:02:42;;;;;;;1.57;1.40;;;17.80;95.30;;;;;;5034066;28;20626;-85
2022/05/13 11:05:15;;;;;;;0.87;0.87;;;17.90;94.60;;;;;;5024366;28;20730;-86
2022/05/13 11:07:47;;;;;;;1.27;1.23;;;18.00;94.90;;;;;;5037817;28;20654;-85
2022/05/13 11:10:23;;;;;;;1.40;1.10;;;18.10;94.50;;;;;;5035512;28;20627;-84
2022/05/13 11:12:56;;;;;;;1.40;1.13;;;18.20;95.70;;;;;;5034396;28;20753;-85
2022/05/13 11:15:32;;;;;;;1.30;1.20;;;18.20;94.10;;;;;;5037854;28;21196;-84
2022/05/13 11:18:06;;;;;;;1.40;1.30;;;18.70;96.30;;;;;;5031381;28;20631;-84
2022/05/13 11:20:44;;;;;;;1.37;1.23;;;18.40;96.60;;;;;;5034998;28;20727;-85
2022/05/13 11:23:23;;;;;;;1.40;1.30;;;18.50;94.50;;;;;;5038184;28;20615;-84
2022/05/13 11:26:10;;;;;;;1.20;1.20;;;18.10;96.20;;;;;;5033772;28;21046;-84
2022/05/13 11:29:03;;;;;;;2.00;1.20;;;18.40;94.30;;;;;;5035298;28;20615;-85
2022/05/13 11:31:47;;;;;;;1.10;1.00;;;18.50;93.50;;;;;;5033729;28;20672;-85
2022/05/13 11:34:26;;;;;;;2.60;1.30;;;18.60;96.00;;;;;;5035193;28;20678;-85
2022/05/13 11:36:58;;;;;;;1.47;1.37;;;18.90;94.00;;;;;;5028996;28;20690;-86
2022/05/13 11:39:44;;;;;;;2.17;1.60;;;19.00;94.10;;;;;;5029345;28;20696;-84
2022/05/13 11:42:27;;;;;;;1.47;1.30;;;19.00;93.70;;;;;;5034675;28;20631;-84
2022/05/13 11:45:14;;;;;;;1.70;1.60;;;18.90;92.30;;;;;;5035452;28;20717;-85
2022/05/13 11:47:56;;;;;;;1.77;1.67;;;18.80;92.80;;;;;;5009358;28;20739;-85
2022/05/13 11:50:24;;;;;;;2.13;1.70;;;19.00;94.10;;;;;;5027887;28;20627;-84
2022/05/13 11:52:53;;;;;;;1.40;1.30;;;19.00;95.50;;;;;;5029588;28;20671;-85
2022/05/13 11:55:43;;;;;;;1.37;1.27;;;18.80;94.00;;;;;;5035294;28;20719;-86
2022/05/13 11:58:51;;;;;;;1.93;1.33;;;19.50;93.90;;;;;;5029577;28;20639;-84
2022/05/13 12:01:57;;;;;;;1.90;1.63;;;19.40;93.10;;;;;;5021056;28;20628;-86
2022/05/13 12:04:32;;;;;;;1.20;1.10;;;19.90;93.80;;;;;;5027806;28;20633;-84
2022/05/13 12:07:01;;;;;;;1.67;1.57;;;20.60;92.10;;;;;;5029104;28;21195;-85
2022/05/13 12:09:37;;;;;;;1.80;1.70;;;21.10;92.40;;;;;;5029505;28;20619;-86
2022/05/13 12:12:11;;;;;;;1.43;1.33;;;22.90;92.20;;;;;;5035510;28;20623;-86
2022/05/13 12:14:52;;;;;;;1.50;1.40;;;25.80;92.60;;;;;;5028098;28;20745;-86
2022/05/13 12:17:27;;;;;;;1.20;1.20;;;25.70;82.70;;;;;;5028980;28;20626;-86
2022/05/13 12:20:01;;;;;;;1.37;1.27;;;25.30;76.90;;;;;;5032312;28;21020;-86
2022/05/13 12:22:42;;;;;;;1.50;1.40;;;25.40;75.50;;;;;;5037758;28;20737;-86
2022/05/13 12:25:11;;;;;;;1.10;1.10;;;25.80;71.70;;;;;;5031377;28;20760;-85
2022/05/13 12:27:40;;;;;;;1.50;1.40;;;25.70;72.10;;;;;;5035300;28;21066;-85
2022/05/13 12:30:31;;;;;;;2.27;1.70;;;25.90;72.50;;;;;;5028696;28;20662;-85
2022/05/13 12:33:23;;;;;;;1.77;1.67;;;25.90;73.80;;;;;;5035159;28;20666;-85
2022/05/13 12:39:06;;;;;;;2.03;1.17;;;25.00;69.80;;;;;;5030799;28;21209;-87
2022/05/13 12:41:53;;;;;;;2.13;1.93;;;24.20;72.40;;;;;;5028835;28;20658;-85
2022/05/13 12:44:27;;;;;;;1.87;1.77;;;22.50;74.10;;;;;;5030288;28;20630;-85
2022/05/13 12:47:20;;;;;;;1.40;1.30;;;22.70;76.30;;;;;;5031537;28;20624;-85
2022/05/13 12:49:59;;;;;;;1.80;1.70;;;23.70;77.90;;;;;;5031324;28;20645;-85
2022/05/13 12:52:39;;;;;;;1.50;1.40;;;23.80;72.10;;;;;;5031073;28;21185;-85
2022/05/13 12:55:12;;;;;;;3.50;1.40;;;24.80;70.50;;;;;;5033487;28;20649;-85
2022/05/13 12:57:43;;;;;;;1.50;1.33;;;25.50;68.20;;;;;;5032241;28;20629;-85
2022/05/13 13:00:13;;;;;;;1.60;1.50;;;26.20;65.20;;;;;;5029940;28;20620;-85
2022/05/13 13:02:44;;;;;;;1.23;1.13;;;27.80;65.20;;;;;;5036982;28;20619;-85
2022/05/13 13:05:16;;;;;;;1.33;1.23;;;28.20;59.20;;;;;;5029933;28;20615;-86
2022/05/13 13:07:43;;;;;;;1.57;1.47;;;27.20;65.80;;;;;;5031719;28;21160;-85
2022/05/13 13:10:11;;;;;;;1.40;1.30;;;27.40;62.10;;;;;;5030304;28;20615;-86
2022/05/13 13:12:42;;;;;;;1.40;1.30;;;27.90;60.00;;;;;;5033361;28;20611;-86
2022/05/13 13:15:14;;;;;;;1.20;1.10;;;28.00;59.70;;;;;;5035909;28;20757;-87
2022/05/13 13:17:47;;;;;;;1.40;1.30;;;28.70;60.80;;;;;;5028282;28;20628;-86
2022/05/13 13:20:17;;;;;;;1.20;1.10;;;29.50;57.30;;;;;;5028645;28;20729;-86
2022/05/13 13:22:45;;;;;;;1.60;1.50;;;29.60;53.90;;;;;;5029693;28;21057;-85
2022/05/13 13:25:25;;;;;;;1.50;1.40;;;30.00;55.80;;;;;;5029899;28;20620;-86
2022/05/13 13:27:54;;;;;;;1.13;0.90;;;31.10;53.50;;;;;;5032170;28;20618;-86
2022/05/13 13:30:23;;;;;;;1.23;1.20;;;30.20;50.20;;;;;;5027012;28;20643;-85
2022/05/13 13:32:53;;;;;;;1.23;1.20;;;30.10;50.70;;;;;;5028731;28;21201;-87
2022/05/13 13:35:34;;;;;;;1.67;1.30;;;30.30;53.50;;;;;;5033037;28;20717;-86
2022/05/13 13:38:02;;;;;;;0.80;0.70;;;29.70;50.40;;;;;;5034918;28;20659;-86